Time;durP1;ratioP1;P1;durP2;ratioP2;P2;SDS_P1;SDS_P2;PMS_P1;PMS_P2;Temp;Humidity;BMP_temperature;BMP_pressure;BME280_temperature;BME280_humidity;BME280_pressure;Samples;Min_cycle;Max_cycle;Signal;HPM_P1;HPM_P2
2022/01/04 00:01:15;;;;;;;5.63;1.30;;;;;;;8.04;86.52;98906.22;5044456;28;20520;-88
2022/01/04 00:03:43;;;;;;;4.63;1.50;;;;;;;8.10;86.51;98905.75;5050389;28;20083;-88
2022/01/04 00:06:09;;;;;;;4.70;1.15;;;;;;;8.17;86.33;98909.53;5051014;28;20051;-88
2022/01/04 00:08:35;;;;;;;6.38;1.33;;;;;;;8.24;85.85;98895.03;5050658;28;20037;-87
2022/01/04 00:11:09;;;;;;;4.50;1.00;;;;;;;8.28;85.54;98888.63;5053432;28;20045;-87
2022/01/04 00:13:34;;;;;;;5.85;1.00;;;;;;;8.35;85.32;98881.94;5049926;28;20055;-88
2022/01/04 00:16:00;;;;;;;7.13;1.10;;;;;;;8.38;85.00;98881.75;5049868;28;20118;-87
2022/01/04 00:18:26;;;;;;;4.03;1.08;;;;;;;8.41;85.50;98873.63;5051407;28;20024;-88
2022/01/04 00:20:55;;;;;;;4.15;1.02;;;;;;;8.43;85.17;98866.50;5051993;28;20041;-88
2022/01/04 00:23:23;;;;;;;4.80;0.98;;;;;;;8.46;85.27;98870.66;5050439;28;20111;-88
2022/01/04 00:25:49;;;;;;;3.03;0.90;;;;;;;8.46;85.21;98858.44;5051914;28;20095;-86
2022/01/04 00:28:14;;;;;;;1.40;0.77;;;;;;;8.50;84.99;98842.50;5051716;28;20037;-87
2022/01/04 00:30:40;;;;;;;3.17;1.00;;;;;;;8.50;84.98;98845.97;5052694;28;20025;-88
2022/01/04 00:33:08;;;;;;;2.22;0.88;;;;;;;8.51;84.96;98846.78;5053644;28;20032;-87
2022/01/04 00:35:36;;;;;;;1.98;0.77;;;;;;;8.48;85.16;98838.22;5083902;28;20322;-88
2022/01/04 00:38:02;;;;;;;3.73;0.90;;;;;;;8.47;85.33;98833.97;5043104;28;20469;-87
2022/01/04 00:40:27;;;;;;;1.55;0.80;;;;;;;8.46;85.07;98834.94;5050016;28;20044;-87
2022/01/04 00:42:58;;;;;;;2.83;0.95;;;;;;;8.45;85.31;98825.44;5049821;28;20044;-87
2022/01/04 00:45:25;;;;;;;3.38;0.90;;;;;;;8.42;85.62;98820.47;5051180;28;20086;-87
2022/01/04 00:50:16;;;;;;;4.03;1.10;;;;;;;8.39;85.71;98820.72;5050758;28;20060;-87
2022/01/04 00:52:42;;;;;;;2.67;1.10;;;;;;;8.41;85.38;98812.72;5050641;28;20386;-88
2022/01/04 00:55:07;;;;;;;2.22;0.95;;;;;;;8.48;84.68;98806.06;5049538;28;20041;-87
2022/01/04 00:57:33;;;;;;;2.47;0.77;;;;;;;8.55;84.58;98811.59;5050749;28;20020;-87
2022/01/04 00:59:58;;;;;;;3.60;1.02;;;;;;;8.55;84.54;98803.78;5082503;28;20348;-87
2022/01/04 01:02:24;;;;;;;4.22;1.13;;;;;;;8.56;84.64;98806.25;5049330;28;20068;-87
2022/01/04 01:04:52;;;;;;;3.75;1.13;;;;;;;8.54;84.55;98796.91;5049676;28;20029;-87
2022/01/04 01:07:17;;;;;;;3.03;1.10;;;;;;;8.55;84.39;98798.56;5032589;28;20576;-87
2022/01/04 01:10:00;;;;;;;2.35;1.00;;;;;;;8.54;84.85;98799.50;5051145;28;20268;-86
2022/01/04 01:12:25;;;;;;;3.80;1.05;;;;;;;8.54;84.60;98789.88;5049986;28;20108;-87
2022/01/04 01:14:51;;;;;;;2.72;0.82;;;;;;;8.54;84.60;98784.66;5050058;28;20160;-86
2022/01/04 01:17:16;;;;;;;2.58;1.00;;;;;;;8.57;84.93;98791.44;5048805;28;20029;-87
2022/01/04 01:19:42;;;;;;;3.75;0.90;;;;;;;8.57;84.74;98783.59;5075811;28;20393;-88
2022/01/04 01:22:07;;;;;;;3.55;0.98;;;;;;;8.58;85.12;98787.84;5038494;28;20590;-87
2022/01/04 01:24:36;;;;;;;1.80;1.00;;;;;;;8.56;85.46;98779.28;5066642;28;20021;-88
2022/01/04 01:27:01;;;;;;;3.58;1.15;;;;;;;8.58;85.42;98778.22;5050006;28;20048;-87
2022/01/04 01:29:28;;;;;;;3.20;0.90;;;;;;;8.55;85.83;98778.47;5049813;28;20041;-87
2022/01/04 01:31:53;;;;;;;4.45;0.88;;;;;;;8.52;86.34;98767.44;5048382;28;20029;-87
2022/01/04 01:34:23;;;;;;;3.97;0.90;;;;;;;8.48;86.96;98770.31;5048663;28;20144;-87
2022/01/04 01:36:51;;;;;;;2.67;0.85;;;;;;;8.47;87.00;98767.84;5049149;28;20029;-87
2022/01/04 01:39:17;;;;;;;2.92;0.80;;;;;;;8.44;87.36;98762.88;5051238;28;20035;-87
2022/01/04 01:41:42;;;;;;;0.93;0.60;;;;;;;8.46;87.29;98764.41;5049142;28;20060;-87
2022/01/04 01:44:08;;;;;;;1.48;0.85;;;;;;;8.41;87.78;98755.28;5050906;28;20095;-88
2022/01/04 01:46:33;;;;;;;3.60;0.90;;;;;;;8.39;88.24;98746.75;5048908;28;20124;-88
2022/01/04 01:48:59;;;;;;;1.48;0.80;;;;;;;8.36;88.54;98749.59;5051330;28;20087;-88
2022/01/04 01:51:28;;;;;;;3.58;0.80;;;;;;;8.36;88.60;98739.97;5049787;28;20021;-88
2022/01/04 01:53:53;;;;;;;4.03;0.90;;;;;;;8.35;88.94;98746.16;5048654;28;20110;-88
2022/01/04 01:56:19;;;;;;;2.53;0.80;;;;;;;8.31;89.30;98741.31;5050480;28;20044;-89
2022/01/04 01:58:44;;;;;;;2.78;1.10;;;;;;;8.28;89.26;98734.56;5057569;28;20044;-88
2022/01/04 02:01:11;;;;;;;1.92;0.70;;;;;;;8.29;89.47;98735.38;5056217;28;20506;-87
2022/01/04 02:03:37;;;;;;;5.20;1.00;;;;;;;8.26;88.90;98731.22;5049998;28;20025;-88
2022/01/04 02:06:08;;;;;;;1.85;0.80;;;;;;;8.27;88.34;98730.28;5050855;28;20091;-88
2022/01/04 02:08:34;;;;;;;2.03;0.90;;;;;;;8.28;88.60;98712.84;5048711;28;20044;-87
2022/01/04 02:11:02;;;;;;;0.77;0.63;;;;;;;8.25;89.01;98713.91;5048471;28;20041;-87
2022/01/04 02:13:28;;;;;;;1.17;0.63;;;;;;;8.24;88.82;98713.09;5053596;28;20041;-87
2022/01/04 02:15:54;;;;;;;2.05;0.60;;;;;;;8.25;89.01;98709.50;5059911;28;20104;-88
2022/01/04 02:18:20;;;;;;;1.42;0.60;;;;;;;8.24;88.93;98707.03;5068990;28;20054;-88
2022/01/04 02:20:45;;;;;;;1.05;0.70;;;;;;;8.23;89.24;98697.53;5063839;28;20172;-89
2022/01/04 02:23:11;;;;;;;1.65;0.77;;;;;;;8.23;89.46;98689.69;5068465;28;20151;-87
2022/01/04 02:25:36;;;;;;;1.45;0.60;;;;;;;8.20;89.50;98688.19;5065381;28;20116;-89
2022/01/04 02:28:02;;;;;;;0.65;0.60;;;;;;;8.21;89.90;98687.22;5055883;28;20067;-89
2022/01/04 02:30:28;;;;;;;2.60;0.60;;;;;;;8.21;90.01;98670.72;5055442;28;20029;-88
2022/01/04 02:32:54;;;;;;;1.52;0.70;;;;;;;8.21;89.83;98665.50;5059513;28;20048;-88
2022/01/04 02:35:24;;;;;;;1.77;0.60;;;;;;;8.17;89.52;98657.09;5068330;28;20026;-87
2022/01/04 02:37:53;;;;;;;1.90;0.80;;;;;;;8.17;89.75;98648.44;5053224;28;20392;-88
2022/01/04 02:40:19;;;;;;;1.15;0.60;;;;;;;8.16;89.94;98647.63;5053812;28;20220;-88
2022/01/04 02:42:44;;;;;;;2.45;0.68;;;;;;;8.16;89.82;98641.59;5052697;28;20552;-87
2022/01/04 02:45:10;;;;;;;4.43;1.17;;;;;;;8.16;90.47;98636.38;5052747;28;20062;-87
2022/01/04 02:47:36;;;;;;;1.42;0.77;;;;;;;8.16;90.47;98634.56;5045465;28;20319;-87
2022/01/04 02:50:03;;;;;;;2.60;1.02;;;;;;;8.15;91.04;98639.91;5052988;28;20374;-87
2022/01/04 02:52:28;;;;;;;3.85;1.10;;;;;;;8.13;90.94;98636.63;5083862;28;20032;-87
2022/01/04 02:54:54;;;;;;;1.52;1.00;;;;;;;8.10;91.13;98631.63;5051880;28;20066;-88
2022/01/04 02:57:20;;;;;;;1.85;0.70;;;;;;;8.08;91.47;98630.94;5054044;28;20141;-88
2022/01/04 02:59:45;;;;;;;4.13;1.02;;;;;;;8.04;91.81;98626.94;5051696;28;20105;-88
2022/01/04 03:02:11;;;;;;;2.25;0.93;;;;;;;8.08;91.64;98623.91;5051953;28;20163;-89
2022/01/04 03:04:36;;;;;;;1.02;0.70;;;;;;;8.07;91.52;98619.66;5053276;28;20037;-89
2022/01/04 03:07:03;;;;;;;4.07;1.10;;;;;;;8.06;91.58;98617.19;5076363;28;20041;-88
2022/01/04 03:09:28;;;;;;;1.45;0.70;;;;;;;8.07;91.70;98611.84;5052290;28;20029;-88
2022/01/04 03:11:57;;;;;;;1.65;1.00;;;;;;;8.05;91.65;98615.56;5052957;28;20419;-88
2022/01/04 03:14:23;;;;;;;1.60;0.90;;;;;;;8.05;91.33;98605.94;5038444;28;20660;-88
2022/01/04 03:16:48;;;;;;;3.35;1.30;;;;;;;8.02;91.82;98595.75;5079224;28;20140;-89
2022/01/04 03:19:14;;;;;;;2.95;1.17;;;;;;;8.00;91.73;98585.41;5048035;28;20041;-88
2022/01/04 03:21:41;;;;;;;4.45;1.02;;;;;;;8.02;91.92;98587.91;5049943;28;20099;-88
2022/01/04 03:24:09;;;;;;;1.85;0.90;;;;;;;7.96;91.73;98583.19;5045014;28;20103;-89
2022/01/04 03:26:35;;;;;;;2.28;1.10;;;;;;;7.98;91.71;98582.13;5050682;28;20114;-89
2022/01/04 03:29:07;;;;;;;2.80;1.00;;;;;;;7.97;92.19;98577.88;5053155;28;20033;-87
2022/01/04 03:31:33;;;;;;;4.55;2.35;;;;;;;7.97;92.46;98571.78;5045612;28;20053;-88
2022/01/04 03:33:59;;;;;;;3.60;1.20;;;;;;;7.98;92.16;98574.28;5053026;28;20154;-87
2022/01/04 03:36:25;;;;;;;1.77;0.93;;;;;;;8.01;92.31;98570.59;5051748;28;20029;-87
2022/01/04 03:38:55;;;;;;;2.83;1.38;;;;;;;8.00;92.60;98566.31;5044200;28;20059;-89
2022/01/04 03:41:22;;;;;;;3.35;0.90;;;;;;;8.00;92.72;98564.53;5052962;28;20587;-89
2022/01/04 03:43:48;;;;;;;3.55;1.20;;;;;;;8.01;92.45;98554.94;5053109;28;20389;-89
2022/01/04 03:46:14;;;;;;;4.32;1.02;;;;;;;8.00;92.77;98548.88;5053907;28;20044;-89
2022/01/04 03:48:39;;;;;;;4.20;1.40;;;;;;;7.98;92.84;98542.16;5052363;28;20036;-88
2022/01/04 03:51:06;;;;;;;1.85;1.00;;;;;;;7.97;93.16;98537.88;5054966;28;20108;-88
2022/01/04 03:53:33;;;;;;;4.45;1.02;;;;;;;7.96;93.45;98539.66;5053963;28;20060;-88
2022/01/04 03:55:58;;;;;;;9.10;1.42;;;;;;;7.96;93.51;98526.59;5055810;28;20036;-88
2022/01/04 03:58:24;;;;;;;8.07;2.50;;;;;;;7.97;93.40;98538.72;5053330;28;20109;-88
2022/01/04 04:00:50;;;;;;;2.78;1.20;;;;;;;7.95;94.01;98527.56;5053917;28;20368;-89
2022/01/04 04:03:19;;;;;;;2.25;1.20;;;;;;;7.96;93.91;98517.94;5054866;28;20039;-90
2022/01/04 04:05:44;;;;;;;5.35;1.30;;;;;;;7.94;93.98;98515.47;5052697;28;20028;-88
2022/01/04 04:08:10;;;;;;;3.95;1.10;;;;;;;7.94;93.98;98515.47;5051100;28;20112;-88
2022/01/04 04:10:36;;;;;;;4.10;1.60;;;;;;;7.92;94.24;98512.16;5050530;28;20037;-90
2022/01/04 04:13:02;;;;;;;3.22;1.30;;;;;;;7.93;94.17;98508.59;5049685;28;20029;-88
2022/01/04 04:15:28;;;;;;;2.85;1.40;;;;;;;7.94;94.15;98499.81;5051762;28;20500;-88
2022/01/04 04:17:53;;;;;;;6.70;1.65;;;;;;;7.93;94.55;98489.50;5049949;28;20041;-89
2022/01/04 04:20:20;;;;;;;3.20;1.67;;;;;;;7.92;94.26;98490.47;5050954;28;20409;-88
2022/01/04 04:22:47;;;;;;;2.78;1.58;;;;;;;7.90;94.99;98481.97;5051374;28;20029;-88
2022/01/04 04:25:13;;;;;;;3.42;1.70;;;;;;;7.90;95.03;98481.97;5051366;28;20049;-88
2022/01/04 04:27:39;;;;;;;5.05;1.70;;;;;;;7.86;95.28;98478.78;5076065;28;20386;-87
2022/01/04 04:30:05;;;;;;;3.65;1.55;;;;;;;7.85;95.11;98477.09;5051927;28;20067;-87
2022/01/04 04:32:31;;;;;;;4.03;1.70;;;;;;;7.86;95.26;98476.19;5051522;28;20395;-88
2022/01/04 04:34:57;;;;;;;10.70;7.15;;;;;;;7.85;95.08;98474.50;5050090;28;20037;-87
2022/01/04 04:37:23;;;;;;;29.38;16.00;;;;;;;7.89;95.17;98480.28;5052180;28;20457;-88
2022/01/04 04:39:50;;;;;;;6.72;2.10;;;;;;;7.86;95.58;98478.78;5052555;28;20060;-88
2022/01/04 04:42:16;;;;;;;6.85;1.95;;;;;;;7.85;95.41;98479.72;5053343;28;20393;-88
2022/01/04 04:44:44;;;;;;;7.45;2.50;;;;;;;7.87;95.58;98470.00;5050260;28;20078;-88
2022/01/04 04:47:11;;;;;;;7.07;2.20;;;;;;;7.86;95.53;98467.50;5050863;28;20442;-88
2022/01/04 04:49:36;;;;;;;3.53;1.80;;;;;;;7.85;95.24;98458.84;5050419;28;20385;-88
2022/01/04 04:52:02;;;;;;;5.22;2.22;;;;;;;7.86;95.42;98457.06;5054008;28;20047;-87
2022/01/04 04:54:29;;;;;;;6.07;2.17;;;;;;;7.84;95.78;98459.81;5058646;28;20530;-87
2022/01/04 04:56:57;;;;;;;8.65;4.75;;;;;;;7.85;95.26;98444.97;5052993;28;20032;-88
2022/01/04 04:59:23;;;;;;;12.82;5.93;;;;;;;7.85;95.77;98448.41;5051374;28;20067;-88
2022/01/04 05:01:49;;;;;;;6.15;2.55;;;;;;;7.85;95.52;98434.53;5052859;28;20063;-89
2022/01/04 05:04:17;;;;;;;8.07;2.80;;;;;;;7.86;95.70;98447.47;5061095;28;20033;-88
2022/01/04 05:06:43;;;;;;;7.57;2.67;;;;;;;7.84;95.85;98432.91;5053238;28;20036;-87
2022/01/04 05:09:18;;;;;;;9.90;2.97;;;;;;;7.84;95.76;98440.72;5084117;28;20029;-89
2022/01/04 05:11:43;;;;;;;5.85;2.53;;;;;;;7.83;96.02;98437.28;5052034;28;20044;-87
2022/01/04 05:14:09;;;;;;;8.55;3.28;;;;;;;7.86;96.00;98430.97;5051174;28;20041;-88
2022/01/04 05:16:34;;;;;;;7.72;2.50;;;;;;;7.84;96.00;98430.28;5051355;28;20068;-87
2022/01/04 05:19:05;;;;;;;5.78;2.55;;;;;;;7.84;96.07;98419.84;5049331;28;20107;-87
2022/01/04 05:21:30;;;;;;;6.93;3.10;;;;;;;7.83;95.94;98413.81;5050459;28;20433;-88
2022/01/04 05:23:58;;;;;;;8.63;3.50;;;;;;;7.83;95.44;98416.41;5060708;28;20043;-88
2022/01/04 05:26:26;;;;;;;5.15;2.80;;;;;;;7.80;95.81;98405.41;5055306;28;20526;-88
2022/01/04 05:28:51;;;;;;;5.88;2.60;;;;;;;7.81;95.88;98394.03;5048699;28;20047;-87
2022/01/04 05:31:17;;;;;;;6.25;2.95;;;;;;;7.81;95.83;98394.03;5050611;28;20058;-87
2022/01/04 05:33:42;;;;;;;9.90;3.47;;;;;;;7.82;95.92;98387.84;5051744;28;20036;-87
2022/01/04 05:36:08;;;;;;;5.75;2.80;;;;;;;7.84;96.12;98385.94;5050211;28;20025;-86
2022/01/04 05:38:36;;;;;;;6.18;2.63;;;;;;;7.85;95.72;98382.34;5048982;28;20121;-87
2022/01/04 05:41:02;;;;;;;7.17;3.10;;;;;;;7.83;96.05;98377.28;5039222;28;20077;-87
2022/01/04 05:43:32;;;;;;;8.80;3.47;;;;;;;7.82;96.09;98361.75;5049871;28;20320;-88
2022/01/04 05:46:11;;;;;;;7.13;3.45;;;;;;;7.83;96.23;98364.25;5052222;28;20041;-87
2022/01/04 05:48:36;;;;;;;8.40;3.25;;;;;;;7.84;95.99;98354.63;5056988;28;20025;-87
2022/01/04 05:51:02;;;;;;;7.35;3.08;;;;;;;7.84;96.38;98352.84;5088294;28;20040;-87
2022/01/04 05:53:28;;;;;;;10.65;4.70;;;;;;;7.85;96.27;98333.59;5076577;28;20039;-87
2022/01/04 05:55:53;;;;;;;12.32;5.30;;;;;;;7.85;96.48;98333.59;5050036;28;20110;-87
2022/01/04 05:58:19;;;;;;;8.75;4.25;;;;;;;7.87;96.39;98343.94;5049438;28;20064;-86
2022/01/04 06:00:49;;;;;;;7.30;3.33;;;;;;;7.88;96.38;98343.78;5058720;28;20037;-87
2022/01/04 06:03:22;;;;;;;8.80;4.00;;;;;;;7.89;96.29;98328.94;5055759;28;20021;-86
2022/01/04 06:05:48;;;;;;;8.68;4.05;;;;;;;7.87;96.17;98321.28;5044703;28;20091;-88
2022/01/04 06:08:16;;;;;;;9.88;4.63;;;;;;;7.85;96.19;98315.34;5056408;28;20041;-87
2022/01/04 06:10:43;;;;;;;20.80;9.43;;;;;;;7.85;96.43;98304.91;5053779;28;20029;-87
2022/01/04 06:15:55;;;;;;;20.65;10.57;;;;;;;7.88;96.19;98302.03;5033515;28;20030;-88
2022/01/04 06:18:21;;;;;;;17.73;6.93;;;;;;;7.89;96.21;98289.81;5016590;28;20036;-89
2022/01/04 06:20:56;;;;;;;10.55;5.82;;;;;;;7.87;96.50;98287.34;5013400;28;20040;-88
2022/01/04 06:23:24;;;;;;;12.25;5.85;;;;;;;7.87;96.29;98281.31;5014520;28;20399;-88
2022/01/04 06:25:52;;;;;;;14.40;6.13;;;;;;;7.86;97.00;98277.03;5001763;28;20053;-86
2022/01/04 06:28:18;;;;;;;14.77;7.47;;;;;;;8.00;97.76;98276.63;4997861;28;20042;-88
2022/01/04 06:30:50;;;;;;;14.27;6.43;;;;;;;8.21;99.07;98268.69;5019344;28;20029;-89
2022/01/04 06:33:21;;;;;;;11.07;5.75;;;;;;;8.15;97.61;98262.22;5034282;28;20034;-91
2022/01/04 06:35:48;;;;;;;13.23;5.70;;;;;;;8.10;96.29;98264.44;4996852;28;20460;-90
2022/01/04 06:38:17;;;;;;;11.63;6.30;;;;;;;8.05;95.76;98256.19;5028963;28;20389;-92
2022/01/04 06:41:02;;;;;;;11.40;6.00;;;;;;;8.00;95.20;98246.13;5028309;28;20076;-91
2022/01/04 06:43:30;;;;;;;12.35;5.50;;;;;;;7.93;95.43;98247.66;5019441;28;20073;-90
2022/01/04 06:45:56;;;;;;;12.43;5.90;;;;;;;7.92;95.56;98246.00;5034478;28;20117;-91
2022/01/04 06:48:28;;;;;;;8.18;5.07;;;;;;;7.90;95.84;98236.69;5019369;28;20103;-91
2022/01/04 06:50:57;;;;;;;9.85;5.35;;;;;;;7.88;95.86;98231.59;5016806;28;20453;-91
2022/01/04 06:53:27;;;;;;;10.02;5.15;;;;;;;7.83;95.54;98228.56;5058792;28;20037;-94
2022/01/04 06:55:53;;;;;;;12.52;5.15;;;;;;;7.81;95.61;98220.03;5048352;28;20044;-90
2022/01/04 06:58:21;;;;;;;14.63;5.25;;;;;;;7.78;95.88;98222.91;5060889;28;20037;-91
2022/01/04 07:01:04;;;;;;;8.57;4.60;;;;;;;7.75;96.10;98218.00;5055416;28;20032;-95
2022/01/04 07:03:32;;;;;;;9.60;5.32;;;;;;;7.73;96.44;98222.50;5060579;28;20131;-91
2022/01/04 07:05:57;;;;;;;10.13;5.27;;;;;;;7.70;96.47;98212.34;5054234;28;20393;-92
2022/01/04 07:08:28;;;;;;;11.82;5.60;;;;;;;7.69;96.75;98208.91;5056440;28;20118;-92
2022/01/04 07:10:54;;;;;;;9.85;4.55;;;;;;;7.68;96.44;98225.53;5056351;28;20079;-91
2022/01/04 07:13:19;;;;;;;13.23;5.13;;;;;;;7.67;96.79;98210.81;5058205;28;20041;-93
2022/01/04 07:15:50;;;;;;;12.48;4.97;;;;;;;7.68;96.70;98209.06;5057236;28;20033;-92
2022/01/04 07:18:22;;;;;;;10.38;4.80;;;;;;;7.69;96.40;98206.31;5057588;28;20013;-90
2022/01/04 07:20:52;;;;;;;10.63;4.80;;;;;;;7.70;96.52;98201.91;5046196;28;20362;-92
2022/01/04 07:23:20;;;;;;;9.52;5.57;;;;;;;7.73;96.58;98201.66;5057363;28;20028;-90
2022/01/04 07:25:52;;;;;;;11.35;5.43;;;;;;;7.73;96.32;98205.06;5051642;28;20441;-93
2022/01/04 07:28:27;;;;;;;10.75;5.32;;;;;;;7.70;96.76;98202.75;5063218;28;20431;-92
2022/01/04 07:30:57;;;;;;;9.68;5.78;;;;;;;7.71;96.62;98195.72;5047572;28;20082;-93
2022/01/04 07:33:23;;;;;;;10.88;5.40;;;;;;;7.72;96.78;98192.19;5055150;28;20396;-91
2022/01/04 07:36:46;;;;;;;;;;;;;;;;;;;;;
2022/01/04 07:39:12;;;;;;;14.50;6.25;;;;;;;7.72;96.24;98189.56;5056521;28;20180;-93
2022/01/04 07:41:57;;;;;;;21.30;8.65;;;;;;;7.72;96.55;98190.41;5053351;28;20401;-92
2022/01/04 07:44:31;;;;;;;16.13;7.93;;;;;;;7.75;96.60;98186.69;5055939;28;20044;-92
2022/01/04 07:47:21;;;;;;;19.45;9.75;;;;;;;7.77;96.47;98189.97;5051978;28;20062;-92
2022/01/04 07:49:47;;;;;;;24.17;12.40;;;;;;;7.75;96.99;98192.72;5057938;28;20560;-92
2022/01/04 07:52:18;;;;;;;26.33;12.95;;;;;;;7.73;96.68;98184.22;5054486;28;20052;-92
2022/01/04 07:54:43;;;;;;;20.55;10.23;;;;;;;7.77;96.45;98182.16;5046274;28;20454;-91
2022/01/04 07:57:14;;;;;;;17.10;8.93;;;;;;;7.79;96.42;98187.22;5071128;28;20033;-90
2022/01/04 07:59:42;;;;;;;15.73;8.68;;;;;;;7.80;96.22;98179.28;5037765;28;20041;-92
2022/01/04 08:02:16;;;;;;;13.48;8.45;;;;;;;7.82;96.45;98174.72;5039938;28;20167;-91
2022/01/04 08:04:41;;;;;;;14.57;7.85;;;;;;;7.86;96.31;98177.88;5053078;28;20051;-93
2022/01/04 08:07:25;;;;;;;18.75;8.02;;;;;;;7.86;96.39;98170.91;5085911;28;20136;-91
2022/01/04 08:09:52;;;;;;;14.38;7.13;;;;;;;7.86;96.50;98170.06;5058664;28;20131;-89
2022/01/04 08:12:18;;;;;;;10.20;6.40;;;;;;;7.86;96.26;98164.84;5060662;28;20025;-91
2022/01/04 08:14:44;;;;;;;12.45;6.70;;;;;;;7.84;96.20;98170.22;5087820;28;20090;-93
2022/01/04 08:17:15;;;;;;;8.60;6.07;;;;;;;7.83;96.21;98168.56;5055734;28;20063;-91
2022/01/04 08:19:50;;;;;;;12.55;6.55;;;;;;;7.83;95.98;98171.19;5056511;28;20041;-90
2022/01/04 08:22:20;;;;;;;17.67;7.45;;;;;;;7.82;96.22;98163.47;5048585;28;20090;-90
2022/01/04 08:24:48;;;;;;;11.23;6.90;;;;;;;7.86;96.23;98163.09;5070432;28;20041;-91
2022/01/04 08:27:18;;;;;;;17.70;12.88;;;;;;;7.87;96.01;98163.91;5088481;28;20043;-91
2022/01/04 08:29:46;;;;;;;16.50;8.80;;;;;;;7.85;96.07;98161.41;5020747;28;20084;-91
2022/01/04 08:32:27;;;;;;;14.02;7.40;;;;;;;7.90;95.80;98151.41;5070825;28;20025;-91
2022/01/04 08:35:03;;;;;;;16.27;6.80;;;;;;;7.87;95.44;98161.28;5072090;28;20086;-91
2022/01/04 08:37:29;;;;;;;13.18;6.20;;;;;;;7.89;95.86;98151.53;5071174;28;20052;-92
2022/01/04 08:40:25;;;;;;;11.98;5.63;;;;;;;7.90;95.24;98145.38;5071680;28;20033;-91
2022/01/04 08:42:58;;;;;;;14.38;6.55;;;;;;;7.89;95.24;98141.91;5068572;28;20029;-92
2022/01/04 08:45:28;;;;;;;10.73;5.53;;;;;;;7.90;95.07;98134.94;5058194;28;20021;-90
2022/01/04 08:48:01;;;;;;;11.52;5.68;;;;;;;7.91;94.63;98136.56;5074868;28;20093;-93
2022/01/04 08:50:27;;;;;;;10.20;4.72;;;;;;;7.91;95.04;98136.56;5073587;28;20092;-92
2022/01/04 08:53:14;;;;;;;8.93;4.20;;;;;;;7.93;94.51;98134.63;5073195;28;20021;-91
2022/01/04 08:55:51;;;;;;;11.10;4.70;;;;;;;7.94;94.55;98125.84;5068334;28;20031;-90
2022/01/04 08:58:20;;;;;;;7.32;3.85;;;;;;;7.94;94.15;98120.63;5091186;28;20035;-91
2022/01/04 09:00:46;;;;;;;7.90;4.25;;;;;;;7.96;94.20;98122.13;5071157;28;20074;-89
2022/01/04 09:03:17;;;;;;;11.85;4.78;;;;;;;7.94;94.52;98111.03;5056874;28;20024;-91
2022/01/04 09:05:43;;;;;;;7.97;3.45;;;;;;;7.94;94.41;98110.19;5057008;28;20033;-90
2022/01/04 09:08:10;;;;;;;7.40;3.22;;;;;;;7.97;93.91;98105.53;5052685;28;20181;-88
2022/01/04 09:10:39;;;;;;;7.18;3.53;;;;;;;8.02;93.49;98093.84;5046250;28;20068;-91
2022/01/04 09:13:10;;;;;;;10.90;3.85;;;;;;;8.03;93.68;98096.31;5057268;28;20104;-92
2022/01/04 09:20:57;;;;;;;11.45;3.20;;;;;;;8.11;93.08;98082.53;5065134;28;20040;-89
2022/01/04 09:23:26;;;;;;;8.95;4.07;;;;;;;8.14;92.90;98075.25;5063616;28;20101;-90
2022/01/04 09:25:54;;;;;;;;;;;;;;;8.18;93.36;98071.38;5068155;28;20526;-85
2022/01/04 09:28:27;;;;;;;16.20;7.47;;;;;;;8.24;93.16;98065.59;5062865;28;19944;-91
2022/01/04 09:30:58;;;;;;;13.18;6.57;;;;;;;8.28;93.80;98065.34;5047600;28;20029;-91
2022/01/04 09:33:24;;;;;;;12.50;5.75;;;;;;;8.32;93.57;98067.50;5087460;28;20053;-91
2022/01/04 09:35:53;;;;;;;13.35;6.13;;;;;;;8.35;93.34;98069.84;5071859;28;20033;-88
2022/01/04 09:38:26;;;;;;;11.02;5.60;;;;;;;8.36;93.43;98068.84;5065860;28;20120;-91
2022/01/04 09:40:54;;;;;;;10.48;4.72;;;;;;;8.36;92.94;98062.81;5073325;28;20109;-89
2022/01/04 09:43:30;;;;;;;10.43;5.22;;;;;;;8.37;93.21;98070.53;5063769;28;20025;-90
2022/01/04 09:45:56;;;;;;;13.48;6.15;;;;;;;8.37;92.98;98049.63;5053232;28;20043;-91
2022/01/04 09:48:42;;;;;;;12.85;6.28;;;;;;;8.37;92.57;98048.78;5053584;28;20032;-89
2022/01/04 09:51:17;;;;;;;11.18;4.55;;;;;;;8.34;92.55;98041.25;5026388;28;20033;-92
2022/01/04 09:53:49;;;;;;;8.65;4.65;;;;;;;8.33;92.53;98052.66;5051761;28;20037;-89
2022/01/04 09:56:14;;;;;;;15.57;6.25;;;;;;;8.32;92.78;98045.78;5053478;28;20500;-87
2022/01/04 09:58:43;;;;;;;9.93;5.20;;;;;;;8.31;92.80;98054.59;5052016;28;20041;-87
2022/01/04 10:01:25;;;;;;;12.47;5.77;;;;;;;8.31;92.70;98046.78;5042382;28;20072;-86
2022/01/04 10:03:53;;;;;;;10.95;5.72;;;;;;;8.28;92.99;98049.66;5055115;28;20349;-87
2022/01/04 10:06:19;;;;;;;13.63;6.70;;;;;;;8.27;93.04;98048.00;5054567;28;20029;-88
2022/01/04 10:09:14;;;;;;;10.20;6.53;;;;;;;8.30;92.63;98037.28;5048839;28;20056;-88
2022/01/04 10:11:44;;;;;;;9.55;5.53;;;;;;;8.33;93.24;98044.81;5035529;28;20052;-86
2022/01/04 10:14:29;;;;;;;13.90;6.50;;;;;;;8.33;93.25;98027.38;5050888;28;20106;-87
2022/01/04 10:16:58;;;;;;;10.85;6.28;;;;;;;8.33;93.13;98026.53;5037807;28;20446;-88
2022/01/04 10:19:51;;;;;;;11.88;7.82;;;;;;;8.34;93.16;98015.13;5044903;28;20041;-87
2022/01/04 10:22:20;;;;;;;12.27;6.90;;;;;;;8.37;93.85;98018.31;5046379;28;20040;-88
2022/01/04 10:25:04;;;;;;;11.43;6.60;;;;;;;8.34;93.62;98010.72;5066629;28;20591;-86
2022/01/04 10:27:32;;;;;;;13.73;7.22;;;;;;;8.34;93.56;98005.50;5047250;28;20048;-89
2022/01/04 10:30:27;;;;;;;10.77;5.30;;;;;;;8.33;93.42;98005.66;5066590;28;20106;-87
2022/01/04 10:33:04;;;;;;;5.20;2.80;;;;;;;8.30;92.77;98014.59;5050950;28;20037;-86
2022/01/04 10:35:49;;;;;;;7.03;3.58;;;;;;;8.27;92.61;98011.44;5054033;28;20119;-88
2022/01/04 10:38:23;;;;;;;10.25;2.75;;;;;;;8.27;92.79;98009.69;5048948;28;20193;-87
2022/01/04 10:40:58;;;;;;;7.25;2.60;;;;;;;8.27;91.96;98004.47;5056189;28;20089;-87
2022/01/04 10:43:30;;;;;;;3.58;2.03;;;;;;;8.28;92.23;98008.72;5065867;28;20049;-88
2022/01/04 10:45:56;;;;;;;5.13;2.28;;;;;;;8.24;92.16;98002.13;5046315;28;20419;-87
2022/01/04 10:48:25;;;;;;;4.80;2.25;;;;;;;8.23;91.94;98001.31;5067936;28;20025;-85
2022/01/04 10:50:57;;;;;;;5.28;2.30;;;;;;;8.21;91.95;98003.25;5054289;28;20063;-87
2022/01/04 10:53:29;;;;;;;4.50;2.13;;;;;;;8.23;92.13;98000.47;5052833;28;20036;-87
2022/01/04 10:56:01;;;;;;;5.28;2.28;;;;;;;8.24;92.52;97978.66;5053522;28;20025;-87
2022/01/04 10:58:53;;;;;;;6.00;2.50;;;;;;;8.24;92.29;97984.69;5053900;28;20025;-87
2022/01/04 11:01:25;;;;;;;7.38;3.20;;;;;;;8.21;92.18;97984.16;5047324;28;20103;-87
2022/01/04 11:04:00;;;;;;;8.65;3.58;;;;;;;8.17;92.77;97983.63;5045601;28;20028;-87
2022/01/04 11:06:37;;;;;;;7.57;3.53;;;;;;;8.11;92.83;97988.59;5042476;28;20025;-89
2022/01/04 11:09:11;;;;;;;6.40;2.92;;;;;;;8.07;92.54;97990.66;5052708;28;20040;-90
2022/01/04 11:11:42;;;;;;;6.93;2.88;;;;;;;8.00;92.62;97985.19;5054504;28;20162;-89
2022/01/04 11:14:10;;;;;;;7.18;3.40;;;;;;;7.98;92.60;97989.75;5054262;28;20041;-88
2022/01/04 11:16:41;;;;;;;6.95;3.28;;;;;;;7.98;93.85;97981.91;5053326;28;20033;-90
2022/01/04 11:19:07;;;;;;;7.22;2.95;;;;;;;8.05;93.63;97982.16;5054076;28;20041;-90
2022/01/04 11:21:41;;;;;;;6.50;3.00;;;;;;;8.00;93.48;97979.16;5057138;28;20105;-90
2022/01/04 11:24:25;;;;;;;6.13;3.00;;;;;;;7.96;93.08;97989.06;5054884;28;20150;-90
2022/01/04 11:27:08;;;;;;;6.35;2.67;;;;;;;7.89;93.27;97979.34;5058294;28;20039;-90
2022/01/04 11:29:41;;;;;;;7.40;3.00;;;;;;;7.82;94.01;97973.03;5058528;28;20398;-90
2022/01/04 11:32:16;;;;;;;5.47;2.95;;;;;;;7.74;94.28;97971.13;5051126;28;20083;-91
2022/01/04 11:35:09;;;;;;;8.75;2.92;;;;;;;7.77;94.85;97968.25;5047547;28;20028;-90
2022/01/04 11:37:38;;;;;;;7.32;3.00;;;;;;;7.68;94.52;97954.28;5040330;28;20115;-89
2022/01/04 11:40:42;;;;;;;6.63;3.00;;;;;;;7.67;94.08;97957.84;5059639;28;20032;-89
2022/01/04 11:43:35;;;;;;;9.20;3.10;;;;;;;7.66;95.04;97944.94;4993570;28;20095;-91
2022/01/04 11:46:03;;;;;;;6.90;3.30;;;;;;;7.62;94.25;97939.19;4975619;28;20505;-89
2022/01/04 11:48:47;;;;;;;8.05;3.00;;;;;;;7.59;94.48;97949.09;4974120;28;20035;-89
2022/01/04 11:51:31;;;;;;;7.70;3.05;;;;;;;7.51;94.08;97932.38;4957715;28;20039;-91
2022/01/04 11:54:17;;;;;;;9.55;3.95;;;;;;;7.57;96.09;97925.78;4978661;28;20042;-88
2022/01/04 11:57:09;;;;;;;7.80;3.38;;;;;;;7.62;95.52;97938.38;4979063;28;20101;-89
2022/01/04 11:59:43;;;;;;;6.47;3.03;;;;;;;7.60;94.92;97945.50;4983888;28;20503;-90
2022/01/04 12:02:38;;;;;;;7.60;3.53;;;;;;;7.65;95.39;97938.09;4994622;28;20043;-92
2022/01/04 12:05:22;;;;;;;8.75;3.30;;;;;;;7.61;94.79;97908.88;4978997;28;20083;-90